< < Back
Terminal Aerodrome Forecast


Current Version              Previous Versions:   1  2  3  4  5  6  7  8  9  

Terminal Aerodrome Forecast

341
FTUS42 KGSP 251120
TAFCLT
TAF
KCLT 251120Z 2512/2612 18004KT P6SM FEW045 BKN250
     FM251800 23004KT P6SM SCT050 BKN250=

Latest METAR

936
SAUS70 KWBC 251800
MTRCLT
METAR KCLT 251752Z VRB03KT 10SM SCT045 SCT060 SCT250 33/19 A3015 RMK AO2
SLP198 T03280189 10328 20228 58019


USA.gov is the U.S. government's official web portal to all federal, state and local government web resources and services.